createdAt,value
2022-11-09T00:00:50.293Z,78.14
2022-11-09T00:03:18.222Z,78.15
2022-11-09T00:05:55.809Z,77.71
2022-11-09T00:08:23.216Z,78.36
2022-11-09T00:10:50.584Z,78.70
2022-11-09T00:13:18.373Z,79.14
2022-11-09T00:15:45.998Z,79.11
2022-11-09T00:18:13.260Z,80.13
2022-11-09T00:20:46.942Z,80.33
2022-11-09T00:23:16.635Z,81.73
2022-11-09T00:25:44.328Z,84.01
2022-11-09T00:28:11.752Z,85.56
2022-11-09T00:30:39.740Z,85.67
2022-11-09T00:33:07.316Z,86.34
2022-11-09T00:35:38.152Z,86.20
2022-11-09T00:38:05.474Z,85.73
2022-11-09T00:40:32.743Z,86.53
2022-11-09T00:43:00.033Z,86.04
2022-11-09T00:45:27.250Z,85.79
2022-11-09T00:47:54.792Z,85.16
2022-11-09T00:50:22.104Z,85.53
2022-11-09T00:52:49.461Z,85.89
2022-11-09T00:55:16.772Z,86.23
2022-11-09T00:57:44.042Z,86.16
2022-11-09T01:00:11.903Z,85.76
2022-11-09T01:02:39.207Z,85.59
2022-11-09T01:05:07.658Z,85.46
2022-11-09T01:07:34.875Z,85.42
2022-11-09T01:10:02.107Z,85.70
2022-11-09T01:12:29.304Z,85.57
2022-11-09T01:14:56.564Z,85.20
2022-11-09T01:17:24.324Z,85.85
2022-11-09T01:19:51.749Z,85.95
2022-11-09T01:22:21.822Z,86.52
2022-11-09T01:24:49.088Z,85.67
2022-11-09T01:27:16.964Z,85.13
2022-11-09T01:29:44.192Z,85.44
2022-11-09T01:32:11.649Z,84.69
2022-11-09T01:34:40.542Z,85.03
2022-11-09T01:37:07.769Z,85.14
2022-11-09T01:39:35.039Z,85.10
2022-11-09T01:42:03.461Z,84.72
2022-11-09T01:44:30.831Z,84.36
2022-11-09T01:47:04.851Z,84.30
2022-11-09T01:49:41.071Z,84.20
2022-11-09T01:52:25.736Z,84.58
2022-11-09T01:55:00.519Z,84.26
2022-11-09T01:57:33.995Z,84.82
2022-11-09T02:00:05.902Z,85.12
2022-11-09T02:02:44.468Z,85.34
2022-11-09T02:05:14.979Z,85.41
2022-11-09T02:07:42.954Z,85.62
2022-11-09T02:10:29.924Z,85.32
2022-11-09T02:12:59.674Z,85.14
2022-11-09T02:15:27.918Z,85.73
2022-11-09T02:17:56.697Z,85.81
2022-11-09T02:20:24.869Z,85.65
2022-11-09T02:22:52.451Z,85.13
2022-11-09T02:25:21.721Z,85.74
2022-11-09T02:27:50.434Z,85.70
2022-11-09T02:30:19.303Z,85.42
2022-11-09T02:32:48.604Z,85.11
2022-11-09T02:35:15.945Z,85.07
2022-11-09T02:37:50.171Z,84.93
2022-11-09T02:40:23.102Z,84.59
2022-11-09T02:42:50.525Z,84.38
2022-11-09T02:45:17.827Z,84.41
2022-11-09T02:47:45.201Z,83.90
2022-11-09T02:50:12.497Z,83.49
2022-11-09T02:52:39.871Z,83.57
2022-11-09T02:55:07.481Z,83.74
2022-11-09T02:57:35.444Z,83.32
2022-11-09T03:00:04.727Z,83.02
2022-11-09T03:02:32.143Z,83.51
2022-11-09T03:04:59.426Z,83.34
2022-11-09T03:07:27.227Z,82.69
2022-11-09T03:09:55.184Z,82.83
2022-11-09T03:12:30.351Z,81.93
2022-11-09T03:15:08.017Z,82.70
2022-11-09T03:17:36.479Z,82.64
2022-11-09T03:20:04.804Z,83.24
2022-11-09T03:22:32.379Z,82.78
2022-11-09T03:24:59.753Z,82.63
2022-11-09T03:27:27.086Z,83.37
2022-11-09T03:29:54.345Z,83.03
2022-11-09T03:32:21.970Z,82.68
2022-11-09T03:34:51.499Z,82.04
2022-11-09T03:37:19.535Z,82.93
2022-11-09T03:39:47.037Z,83.01
2022-11-09T03:42:14.215Z,82.71
2022-11-09T03:44:41.898Z,82.39
2022-11-09T03:47:09.354Z,82.32
2022-11-09T03:49:36.577Z,82.06
2022-11-09T03:52:04.590Z,81.87
2022-11-09T03:54:32.300Z,82.28
2022-11-09T03:56:59.565Z,82.47
2022-11-09T03:59:26.832Z,82.41
2022-11-09T04:01:54.305Z,82.56
2022-11-09T04:04:21.530Z,82.74
2022-11-09T04:06:48.751Z,82.14
2022-11-09T04:09:16.063Z,82.27
2022-11-09T04:11:43.334Z,82.41
2022-11-09T04:14:10.676Z,82.43
2022-11-09T04:16:38.768Z,82.55
2022-11-09T04:19:06.014Z,82.63
2022-11-09T04:21:34.141Z,83.77
2022-11-09T04:24:01.399Z,83.22
2022-11-09T04:26:28.575Z,83.27
2022-11-09T04:28:55.976Z,83.33
2022-11-09T04:31:27.760Z,83.05
2022-11-09T04:33:55.792Z,83.04
2022-11-09T04:36:23.173Z,83.33
2022-11-09T04:38:50.411Z,83.26
2022-11-09T04:41:17.682Z,83.61
2022-11-09T04:43:45.047Z,83.88
2022-11-09T04:46:12.338Z,83.37
2022-11-09T04:48:39.688Z,84.09
2022-11-09T04:51:10.690Z,83.89
2022-11-09T04:53:38.857Z,83.96
2022-11-09T04:56:06.779Z,82.96
2022-11-09T04:58:34.592Z,83.10
2022-11-09T05:01:06.707Z,82.50
2022-11-09T05:03:34.449Z,83.19
2022-11-09T05:06:21.839Z,83.54
2022-11-09T05:08:49.567Z,83.18
2022-11-09T05:11:17.159Z,83.17
2022-11-09T05:13:44.473Z,82.95
2022-11-09T05:16:12.024Z,82.66
2022-11-09T05:18:39.463Z,82.65
2022-11-09T05:21:06.880Z,82.07
2022-11-09T05:23:52.575Z,82.56
2022-11-09T05:26:19.835Z,82.46
2022-11-09T05:28:47.103Z,82.86
2022-11-09T05:31:14.517Z,82.90
2022-11-09T05:33:41.778Z,83.27
2022-11-09T05:36:09.072Z,83.00
2022-11-09T05:38:36.293Z,82.56
2022-11-09T05:41:03.472Z,82.55
2022-11-09T05:43:30.882Z,82.93
2022-11-09T05:46:01.355Z,83.72
2022-11-09T05:48:31.183Z,83.64
2022-11-09T05:51:05.468Z,83.59
2022-11-09T05:53:33.052Z,83.88
2022-11-09T05:56:08.962Z,83.68
2022-11-09T05:58:38.799Z,83.78
2022-11-09T06:01:07.278Z,84.35
2022-11-09T06:03:34.573Z,84.38
2022-11-09T06:06:08.648Z,84.53
2022-11-09T06:08:37.380Z,84.67
2022-11-09T06:11:06.928Z,84.77
2022-11-09T06:13:34.604Z,85.13
2022-11-09T06:16:03.517Z,84.72
2022-11-09T06:18:31.746Z,84.61
2022-11-09T06:21:01.108Z,84.83
2022-11-09T06:23:29.401Z,85.12
2022-11-09T06:26:06.471Z,85.05
2022-11-09T06:28:34.660Z,84.98
2022-11-09T06:31:05.390Z,85.41
2022-11-09T06:33:33.142Z,85.30
2022-11-09T06:36:00.867Z,85.84
2022-11-09T06:38:28.572Z,85.86
2022-11-09T06:40:57.148Z,86.07
2022-11-09T06:43:24.743Z,86.35
2022-11-09T06:45:52.654Z,86.66
2022-11-09T06:48:20.341Z,85.90
2022-11-09T06:50:47.661Z,86.32
2022-11-09T06:53:16.898Z,86.17
2022-11-09T06:55:50.189Z,86.56
2022-11-09T06:58:19.759Z,86.91
2022-11-09T07:00:47.286Z,87.13
2022-11-09T07:03:15.662Z,86.56
2022-11-09T07:05:44.089Z,86.60
2022-11-09T07:08:11.912Z,86.88
2022-11-09T07:10:39.434Z,86.70
2022-11-09T07:13:07.061Z,86.66
2022-11-09T07:15:35.009Z,86.43
2022-11-09T07:18:03.815Z,86.56
2022-11-09T07:20:31.543Z,86.28
2022-11-09T07:22:58.807Z,86.09
2022-11-09T07:25:27.385Z,86.29
2022-11-09T07:27:54.813Z,86.00
2022-11-09T07:30:22.184Z,85.80
2022-11-09T07:35:37.093Z,86.18
2022-11-09T07:38:04.457Z,85.66
2022-11-09T07:40:31.802Z,85.82
2022-11-09T07:43:04.001Z,85.90
2022-11-09T07:45:35.522Z,85.55
2022-11-09T07:48:05.835Z,85.28
2022-11-09T07:50:35.434Z,84.66
2022-11-09T07:53:03.594Z,86.43
2022-11-09T07:55:31.173Z,85.47
2022-11-09T07:57:59.994Z,85.03
2022-11-09T08:00:29.150Z,83.49
2022-11-09T08:02:56.517Z,83.86
2022-11-09T08:05:24.108Z,83.40
2022-11-09T08:07:58.800Z,82.92
2022-11-09T08:10:27.038Z,83.14
2022-11-09T08:12:59.194Z,82.65
2022-11-09T08:15:26.833Z,82.19
2022-11-09T08:17:54.374Z,82.70
2022-11-09T08:20:21.715Z,83.19
2022-11-09T08:22:48.958Z,83.01
2022-11-09T08:25:16.504Z,83.03
2022-11-09T08:27:43.774Z,83.12
2022-11-09T08:30:16.463Z,82.74
2022-11-09T08:32:44.532Z,83.02
2022-11-09T08:35:17.412Z,83.26
2022-11-09T08:37:45.510Z,84.21
2022-11-09T08:40:13.539Z,83.66
2022-11-09T08:42:40.835Z,84.00
2022-11-09T08:45:08.650Z,83.59
2022-11-09T08:47:36.132Z,83.91
2022-11-09T08:50:06.431Z,83.80
2022-11-09T08:52:34.127Z,84.16
2022-11-09T08:55:01.511Z,84.03
2022-11-09T08:57:29.950Z,84.38
2022-11-09T08:59:57.208Z,83.79
2022-11-09T09:02:24.547Z,84.12
2022-11-09T09:04:51.813Z,83.39
2022-11-09T09:07:19.170Z,83.37
2022-11-09T09:09:46.448Z,82.56
2022-11-09T09:12:13.760Z,81.96
2022-11-09T09:14:40.978Z,82.10
2022-11-09T09:17:08.213Z,81.92
2022-11-09T09:19:35.448Z,81.63
2022-11-09T09:22:06.094Z,81.74
2022-11-09T09:24:36.376Z,81.54
2022-11-09T09:27:04.044Z,80.09
2022-11-09T09:29:31.566Z,79.50
2022-11-09T09:31:58.840Z,78.86
2022-11-09T09:34:26.176Z,77.88
2022-11-09T09:36:53.873Z,77.77
2022-11-09T09:39:21.665Z,76.83
2022-11-09T09:41:53.422Z,76.79
2022-11-09T09:44:48.523Z,75.28
2022-11-09T09:47:22.644Z,75.66
2022-11-09T09:49:55.725Z,75.69
2022-11-09T09:53:10.477Z,75.52
2022-11-09T09:56:11.809Z,74.38
2022-11-09T09:58:46.031Z,74.44
2022-11-09T10:01:20.175Z,73.90
2022-11-09T10:03:48.554Z,74.35
2022-11-09T10:06:46.488Z,73.78
2022-11-09T10:09:24.014Z,72.76
2022-11-09T10:12:01.864Z,72.98
2022-11-09T10:14:51.240Z,72.73
2022-11-09T10:17:39.647Z,72.81
2022-11-09T10:20:34.092Z,71.94
2022-11-09T10:23:16.704Z,71.22
2022-11-09T10:29:09.107Z,70.02
2022-11-09T10:31:32.905Z,71.49
2022-11-09T10:34:04.634Z,70.40
2022-11-09T10:36:45.027Z,69.82
2022-11-09T10:39:14.154Z,68.89
2022-11-09T10:41:59.948Z,68.47
2022-11-09T10:44:45.616Z,68.79
2022-11-09T10:47:31.232Z,69.18
2022-11-09T10:50:23.216Z,68.73
2022-11-09T10:53:11.032Z,68.47
2022-11-09T10:56:21.281Z,68.10
2022-11-09T10:59:46.195Z,67.30
2022-11-09T11:02:41.442Z,67.12
2022-11-09T11:05:29.265Z,67.16
2022-11-09T11:08:41.845Z,66.31
2022-11-09T11:11:35.086Z,66.02
2022-11-09T11:14:36.434Z,65.61
2022-11-09T11:17:23.017Z,65.43
2022-11-09T11:20:37.416Z,64.54
2022-11-09T11:23:25.564Z,64.25
2022-11-09T11:26:23.693Z,63.69
2022-11-09T11:29:18.866Z,62.32
2022-11-09T11:32:09.442Z,62.55
2022-11-09T11:35:02.719Z,61.95
2022-11-09T11:38:04.630Z,62.17
2022-11-09T11:41:14.796Z,62.45
2022-11-09T11:44:25.237Z,63.17
2022-11-09T11:47:25.983Z,61.43
2022-11-09T11:50:11.933Z,60.85
2022-11-09T11:53:03.831Z,62.31
2022-11-09T11:56:17.323Z,61.77
2022-11-09T11:59:46.277Z,60.92
2022-11-09T12:02:37.943Z,61.78
2022-11-09T12:05:30.003Z,61.23
2022-11-09T12:08:26.027Z,61.41
2022-11-09T12:11:37.017Z,61.21
2022-11-09T12:15:00.045Z,60.93
2022-11-09T12:18:03.768Z,60.01
2022-11-09T12:21:05.616Z,59.80
2022-11-09T12:24:10.442Z,60.27
2022-11-09T12:30:23.926Z,60.03
2022-11-09T12:33:43.875Z,59.98
2022-11-09T12:37:03.111Z,59.50
2022-11-09T12:39:53.864Z,59.78
2022-11-09T12:42:45.607Z,59.71
2022-11-09T12:45:36.318Z,59.60
2022-11-09T12:48:31.052Z,58.89
2022-11-09T12:51:17.266Z,59.32
2022-11-09T12:54:11.155Z,59.36
2022-11-09T12:57:00.292Z,58.67
2022-11-09T12:59:59.316Z,58.34
2022-11-09T13:02:57.197Z,59.23
2022-11-09T13:05:44.982Z,59.02
2022-11-09T13:08:31.421Z,57.84
2022-11-09T13:11:29.210Z,58.91
2022-11-09T13:14:26.077Z,58.76
2022-11-09T13:17:24.265Z,58.94
2022-11-09T13:20:53.963Z,58.83
2022-11-09T13:23:59.882Z,59.56
2022-11-09T13:26:47.251Z,56.93
2022-11-09T13:29:38.925Z,57.57
2022-11-09T13:32:30.050Z,56.87
2022-11-09T13:35:40.860Z,56.78
2022-11-09T13:38:30.456Z,57.26
2022-11-09T13:41:34.301Z,56.51
2022-11-09T13:44:26.363Z,57.33
2022-11-09T13:47:34.120Z,56.43
2022-11-09T13:50:22.948Z,57.44
2022-11-09T13:53:32.248Z,56.53
2022-11-09T13:56:35.261Z,56.05
2022-11-09T13:59:23.577Z,56.93
2022-11-09T14:02:25.242Z,56.43
2022-11-09T14:05:30.823Z,56.62
2022-11-09T14:08:25.818Z,56.94
2022-11-09T14:11:21.974Z,56.66
2022-11-09T14:14:32.812Z,57.34
2022-11-09T14:17:53.906Z,56.21
2022-11-09T14:20:46.347Z,56.08
2022-11-09T14:23:33.158Z,55.89
2022-11-09T14:26:22.653Z,56.43
2022-11-09T14:29:21.178Z,57.01
2022-11-09T14:32:21.983Z,56.53
2022-11-09T14:35:30.399Z,56.14
2022-11-09T14:38:18.338Z,55.79
2022-11-09T14:41:04.818Z,56.09
2022-11-09T14:43:51.663Z,56.56
2022-11-09T14:46:37.352Z,56.17
2022-11-09T14:49:25.493Z,57.13
2022-11-09T14:52:27.020Z,57.54
2022-11-09T14:55:14.906Z,56.79
2022-11-09T14:58:01.138Z,56.42
2022-11-09T15:01:18.385Z,57.56
2022-11-09T15:04:20.886Z,56.57
2022-11-09T15:07:19.637Z,57.13
2022-11-09T15:10:08.399Z,56.52
2022-11-09T15:12:56.866Z,56.91
2022-11-09T15:15:50.642Z,55.85
2022-11-09T15:18:42.747Z,56.21
2022-11-09T15:21:31.140Z,57.52
2022-11-09T15:24:18.576Z,57.35
2022-11-09T15:27:47.163Z,57.32
2022-11-09T15:30:45.495Z,57.43
2022-11-09T15:33:34.680Z,57.78
2022-11-09T15:36:23.121Z,58.28
2022-11-09T15:39:18.111Z,58.32
2022-11-09T15:42:04.211Z,59.40
2022-11-09T15:44:54.812Z,60.13
2022-11-09T15:47:41.104Z,59.32
2022-11-09T15:50:27.620Z,58.60
2022-11-09T15:53:14.586Z,58.00
2022-11-09T15:56:01.955Z,57.92
2022-11-09T15:58:49.263Z,58.21
2022-11-09T16:01:35.154Z,59.20
2022-11-09T16:04:20.957Z,58.43
2022-11-09T16:07:07.998Z,58.72
2022-11-09T16:09:54.108Z,58.45
2022-11-09T16:12:43.840Z,58.62
2022-11-09T16:15:32.738Z,59.41
2022-11-09T16:18:25.534Z,59.34
2022-11-09T16:21:14.372Z,59.92
2022-11-09T16:24:00.019Z,59.38
2022-11-09T16:26:46.079Z,60.38
2022-11-09T16:29:32.476Z,60.88
2022-11-09T16:32:18.388Z,60.50
2022-11-09T16:38:10.915Z,61.16
2022-11-09T16:40:56.833Z,62.05
2022-11-09T16:43:43.333Z,61.53
2022-11-09T16:46:29.490Z,61.47
2022-11-09T16:49:15.424Z,61.28
2022-11-09T16:52:01.589Z,61.65
2022-11-09T16:54:47.399Z,63.16
2022-11-09T16:57:34.289Z,62.85
2022-11-09T17:00:23.114Z,62.85
2022-11-09T17:03:09.016Z,63.01
2022-11-09T17:06:02.723Z,62.69
2022-11-09T17:08:48.774Z,63.35
2022-11-09T17:11:35.040Z,63.22
2022-11-09T17:14:20.712Z,63.91
2022-11-09T17:17:06.669Z,62.49
2022-11-09T17:19:53.028Z,63.36
2022-11-09T17:22:44.701Z,63.50
2022-11-09T17:25:31.748Z,63.07
2022-11-09T17:28:17.624Z,64.25
2022-11-09T17:31:09.107Z,63.76
2022-11-09T17:34:00.897Z,64.06
2022-11-09T17:37:06.302Z,63.88
2022-11-09T17:39:52.585Z,63.46
2022-11-09T17:42:39.914Z,64.00
2022-11-09T17:45:26.206Z,64.67
2022-11-09T17:48:12.087Z,64.75
2022-11-09T17:50:58.335Z,65.37
2022-11-09T17:53:44.776Z,65.71
2022-11-09T17:56:31.715Z,65.66
2022-11-09T17:59:17.643Z,66.46
2022-11-09T18:02:03.607Z,66.62
2022-11-09T18:04:49.224Z,66.96
2022-11-09T18:07:35.696Z,66.47
2022-11-09T18:10:21.941Z,66.44
2022-11-09T18:13:08.557Z,66.53
2022-11-09T18:15:54.630Z,66.96
2022-11-09T18:18:40.396Z,66.56
2022-11-09T18:21:28.591Z,66.71
2022-11-09T18:24:14.768Z,66.32
2022-11-09T18:27:00.770Z,66.53
2022-11-09T18:29:46.595Z,66.96
2022-11-09T18:32:32.690Z,66.90
2022-11-09T18:35:18.211Z,67.03
2022-11-09T18:38:03.967Z,66.61
2022-11-09T18:41:05.729Z,66.52
2022-11-09T18:43:52.204Z,67.28
2022-11-09T18:46:38.486Z,66.21
2022-11-09T18:49:24.361Z,66.24
2022-11-09T18:52:09.988Z,66.54
2022-11-09T18:54:56.926Z,66.86
2022-11-09T18:57:42.893Z,67.37
2022-11-09T19:00:29.220Z,67.15
2022-11-09T19:03:15.986Z,67.17
2022-11-09T19:06:17.943Z,67.29
2022-11-09T19:09:22.431Z,67.63
2022-11-09T19:12:10.459Z,67.12
2022-11-09T19:14:56.494Z,67.48
2022-11-09T19:17:42.090Z,67.25
2022-11-09T19:20:28.654Z,66.92
2022-11-09T19:23:15.083Z,67.19
2022-11-09T19:26:01.749Z,67.55
2022-11-09T19:28:47.445Z,67.36
2022-11-09T19:31:33.635Z,67.44
2022-11-09T19:34:20.808Z,68.54
2022-11-09T19:37:06.505Z,68.18
2022-11-09T19:39:52.407Z,68.04
2022-11-09T19:42:38.195Z,68.29
2022-11-09T19:45:24.175Z,67.94
2022-11-09T19:48:10.329Z,67.70
2022-11-09T19:50:56.159Z,67.84
2022-11-09T19:53:42.894Z,67.93
2022-11-09T19:56:31.236Z,68.30
2022-11-09T19:59:17.527Z,68.67
2022-11-09T20:02:03.812Z,69.09
2022-11-09T20:04:50.749Z,70.02
2022-11-09T20:07:36.798Z,69.65
2022-11-09T20:10:23.721Z,69.76
2022-11-09T20:13:09.322Z,69.30
2022-11-09T20:15:55.207Z,69.53
2022-11-09T20:18:41.221Z,69.46
2022-11-09T20:21:27.495Z,68.52
2022-11-09T20:24:14.353Z,69.20
2022-11-09T20:27:00.234Z,69.40
2022-11-09T20:29:46.015Z,68.52
2022-11-09T20:32:32.055Z,68.18
2022-11-09T20:35:18.090Z,69.01
2022-11-09T20:38:04.105Z,68.89
2022-11-09T20:41:04.983Z,68.77
2022-11-09T20:43:50.637Z,68.42
2022-11-09T20:46:37.030Z,68.27
2022-11-09T20:49:23.364Z,68.33
2022-11-09T20:52:09.755Z,68.59
2022-11-09T20:54:55.677Z,68.29
2022-11-09T20:57:41.786Z,68.25
2022-11-09T21:00:27.634Z,68.46
2022-11-09T21:03:13.321Z,68.59
2022-11-09T21:06:00.196Z,69.10
2022-11-09T21:08:51.164Z,69.20
2022-11-09T21:11:56.960Z,69.31
2022-11-09T21:14:42.847Z,69.64
2022-11-09T21:17:28.499Z,69.87
2022-11-09T21:20:14.862Z,70.17
2022-11-09T21:23:12.797Z,70.42
2022-11-09T21:26:18.357Z,70.61
2022-11-09T21:29:23.773Z,70.83
2022-11-09T21:32:11.520Z,70.93
2022-11-09T21:34:57.714Z,71.45
2022-11-09T21:37:43.843Z,71.02
2022-11-09T21:40:29.830Z,70.85
2022-11-09T21:43:16.326Z,71.17
2022-11-09T21:46:02.294Z,72.88
2022-11-09T21:48:48.075Z,73.69
2022-11-09T21:51:35.014Z,69.97
2022-11-09T21:54:21.125Z,70.12
2022-11-09T21:57:06.892Z,70.47
2022-11-09T21:59:52.903Z,71.24
2022-11-09T22:02:39.082Z,70.99
2022-11-09T22:05:25.032Z,71.73
2022-11-09T22:08:10.942Z,71.93
2022-11-09T22:11:42.648Z,71.71
2022-11-09T22:14:47.120Z,71.69
2022-11-09T22:17:33.287Z,72.61
2022-11-09T22:20:37.573Z,72.05
2022-11-09T22:23:23.665Z,72.17
2022-11-09T22:26:09.595Z,71.83
2022-11-09T22:28:56.964Z,71.95
2022-11-09T22:31:42.890Z,72.40
2022-11-09T22:34:28.987Z,72.17
2022-11-09T22:37:14.620Z,72.23
2022-11-09T22:40:00.219Z,72.71
2022-11-09T22:42:46.075Z,72.63
2022-11-09T22:45:34.958Z,72.66
2022-11-09T22:48:21.376Z,72.21
2022-11-09T22:51:08.125Z,72.19
2022-11-09T22:53:54.114Z,72.76
2022-11-09T22:56:39.667Z,72.89
2022-11-09T22:59:25.326Z,72.98
2022-11-09T23:02:11.194Z,72.94
2022-11-09T23:04:57.092Z,72.95
2022-11-09T23:07:43.112Z,73.19
2022-11-09T23:10:28.715Z,72.95
2022-11-09T23:13:18.126Z,73.90
2022-11-09T23:16:12.175Z,73.59
2022-11-09T23:18:57.955Z,73.13
2022-11-09T23:21:43.774Z,73.42
2022-11-09T23:24:47.925Z,73.63
2022-11-09T23:27:33.781Z,73.61
2022-11-09T23:30:20.397Z,73.05
2022-11-09T23:33:07.685Z,73.60
2022-11-09T23:35:53.858Z,73.19
2022-11-09T23:38:40.486Z,73.39
2022-11-09T23:41:26.080Z,73.53
2022-11-09T23:44:12.036Z,73.28
2022-11-09T23:46:57.986Z,73.07
2022-11-09T23:49:44.052Z,73.64
2022-11-09T23:52:30.055Z,73.87
2022-11-09T23:55:16.319Z,73.62
2022-11-09T23:58:02.688Z,73.72
